Time;durP1;ratioP1;P1;durP2;ratioP2;P2;SDS_P1;SDS_P2;PMS_P1;PMS_P2;Temp;Humidity;BMP_temperature;BMP_pressure;BME280_temperature;BME280_humidity;BME280_pressure;Samples;Min_cycle;Max_cycle;Signal;HPM_P1;HPM_P2
2023/12/23 00:02:12;;;;;;;;;0.00;0.00;;;;;6.81;89.83;99012.72;5094871;28;8940;-57
2023/12/23 00:04:40;;;;;;;;;0.00;0.00;;;;;6.81;89.98;99018.00;5094674;28;8860;-56
2023/12/23 00:07:12;;;;;;;;;0.00;0.00;;;;;6.78;89.93;99027.03;5095129;28;8860;-58
2023/12/23 00:09:40;;;;;;;;;0.00;0.00;;;;;6.74;89.95;99016.81;5094933;28;8814;-57
2023/12/23 00:12:09;;;;;;;;;0.00;0.00;;;;;6.69;89.62;99027.72;5095290;28;8931;-56
2023/12/23 00:14:37;;;;;;;;;0.00;0.00;;;;;6.65;90.01;99046.59;5095317;28;9543;-57
2023/12/23 00:17:05;;;;;;;;;1.00;1.00;;;;;6.63;90.00;99035.31;5095151;28;8830;-57
2023/12/23 00:19:32;;;;;;;;;0.00;0.00;;;;;6.65;90.06;99043.97;5099488;28;8830;-56
2023/12/23 00:22:00;;;;;;;;;0.00;0.00;;;;;6.65;90.02;99041.31;5098416;28;8818;-57
2023/12/23 00:24:31;;;;;;;;;2.50;1.00;;;;;6.67;90.72;99040.25;5102284;28;8952;-56
2023/12/23 00:26:59;;;;;;;;;0.00;0.00;;;;;6.70;90.11;99044.44;5108032;28;8854;-57
2023/12/23 00:29:27;;;;;;;;;0.00;0.00;;;;;6.73;89.98;99045.06;5120064;28;8811;-57
2023/12/23 00:31:54;;;;;;;;;0.00;0.00;;;;;6.78;89.97;99064.06;5104191;28;8850;-56
2023/12/23 00:34:23;;;;;;;;;0.00;0.00;;;;;6.82;89.89;99068.13;5099040;28;8904;-57
2023/12/23 00:36:51;;;;;;;;;0.00;0.00;;;;;6.88;89.60;99072.97;5089125;28;8920;-56
2023/12/23 00:39:19;;;;;;;;;0.00;0.00;;;;;6.93;89.52;99069.94;5078538;28;8846;-56
2023/12/23 00:41:47;;;;;;;;;0.00;0.00;;;;;6.95;89.08;99074.16;5078286;28;9482;-58
2023/12/23 00:44:14;;;;;;;;;0.00;0.00;;;;;6.97;89.44;99060.81;5112061;28;8797;-57
2023/12/23 00:46:42;;;;;;;;;0.00;0.00;;;;;7.00;89.49;99069.34;5119831;28;8820;-57
2023/12/23 00:49:10;;;;;;;;;0.00;0.00;;;;;7.03;89.30;99070.88;5119554;28;8820;-58
2023/12/23 00:51:38;;;;;;;;;0.00;0.00;;;;;7.06;89.40;99068.03;5119502;28;8862;-57
2023/12/23 00:54:06;;;;;;;;;0.00;0.00;;;;;7.08;89.06;99074.03;5095055;28;8828;-58
2023/12/23 00:56:34;;;;;;;;;0.00;0.00;;;;;7.09;89.06;99075.72;5079287;28;8832;-56
2023/12/23 00:59:01;;;;;;;;;0.00;0.00;;;;;7.09;88.70;99070.41;5078738;28;9498;-58
2023/12/23 01:01:29;;;;;;;;;0.00;0.00;;;;;7.09;89.24;99070.41;5078436;28;8808;-57
2023/12/23 01:03:57;;;;;;;;;0.00;0.00;;;;;7.11;89.13;99082.56;5078241;28;8875;-56
2023/12/23 01:06:25;;;;;;;;;0.25;0.25;;;;;7.13;88.75;99071.88;5078352;28;8828;-56
2023/12/23 01:08:52;;;;;;;;;0.00;0.00;;;;;7.13;88.93;99079.81;5078564;28;8920;-56
2023/12/23 01:11:20;;;;;;;;;0.00;0.00;;;;;7.15;88.60;99069.94;5079389;28;8944;-58
2023/12/23 01:13:48;;;;;;;;;0.00;0.00;;;;;7.16;89.26;99056.59;5078070;28;8820;-58
2023/12/23 01:16:15;;;;;;;;;0.00;0.00;;;;;7.16;88.91;99056.59;5079046;28;8812;-57
2023/12/23 01:18:44;;;;;;;;;0.00;0.00;;;;;7.17;88.83;99060.06;5078424;28;8832;-58
2023/12/23 01:21:12;;;;;;;;;0.00;0.00;;;;;7.18;88.80;99057.28;5078272;28;8859;-56
2023/12/23 01:23:40;;;;;;;;;0.00;0.00;;;;;7.20;88.65;99065.94;5078009;28;8812;-56
2023/12/23 01:26:08;;;;;;;;;0.00;0.00;;;;;7.19;88.70;99061.63;5081676;28;8794;-57
2023/12/23 01:28:36;;;;;;;;;0.00;0.00;;;;;7.20;88.29;99075.72;5096510;28;8826;-57
2023/12/23 01:31:04;;;;;;;;;0.25;0.00;;;;;7.19;88.68;99080.16;5098429;28;8836;-57
2023/12/23 01:33:31;;;;;;;;;0.00;0.00;;;;;7.22;88.39;99074.63;5097757;28;8964;-58
2023/12/23 01:35:59;;;;;;;;;0.00;0.00;;;;;7.23;88.66;99072.81;5097320;28;8833;-59
2023/12/23 01:38:27;;;;;;;;;0.00;0.00;;;;;7.24;88.58;99072.69;5096735;28;8822;-56
2023/12/23 01:40:55;;;;;;;;;0.00;0.00;;;;;7.24;88.62;99072.69;5097811;28;8919;-58
2023/12/23 01:43:22;;;;;;;;;0.00;0.00;;;;;7.26;88.43;99083.13;5101266;28;8868;-58
2023/12/23 01:45:50;;;;;;;;;0.00;0.00;;;;;7.26;88.31;99091.09;5100511;28;8839;-57
2023/12/23 01:48:22;;;;;;;;;0.75;0.00;;;;;7.27;88.38;99088.31;5107403;28;8812;-57
2023/12/23 01:50:50;;;;;;;;;0.00;0.00;;;;;7.29;88.07;99085.56;5118197;28;8812;-58
2023/12/23 01:53:17;;;;;;;;;0.00;0.00;;;;;7.29;88.34;99078.44;5100524;28;8917;-58
2023/12/23 01:55:45;;;;;;;;;0.00;0.00;;;;;7.31;88.04;99086.28;5098086;28;8814;-57
2023/12/23 01:58:13;;;;;;;;;0.00;0.00;;;;;7.31;88.04;99081.84;5098060;28;8937;-57
2023/12/23 02:00:41;;;;;;;;;0.00;0.00;;;;;7.33;88.20;99076.38;5097194;28;9455;-56
2023/12/23 02:03:09;;;;;;;;;0.00;0.00;;;;;7.35;88.06;99082.44;5097638;28;8853;-58
2023/12/23 02:05:36;;;;;;;;;0.00;0.00;;;;;7.35;87.96;99085.06;5115866;28;8812;-56
2023/12/23 02:08:04;;;;;;;;;0.00;0.00;;;;;7.34;88.06;99092.16;5117715;28;8816;-58
2023/12/23 02:10:32;;;;;;;;;0.00;0.00;;;;;7.36;87.82;99084.09;5118033;28;8812;-56
2023/12/23 02:13:01;;;;;;;;;0.75;0.00;;;;;7.36;87.87;99084.94;5117653;28;8938;-56
2023/12/23 02:15:39;;;;;;;;;0.00;0.00;;;;;7.38;87.90;99077.72;5117483;28;8834;-58
2023/12/23 02:18:07;;;;;;;;;0.00;0.00;;;;;7.37;87.80;99073.41;5109838;28;8937;-57
2023/12/23 02:20:34;;;;;;;;;0.00;0.00;;;;;7.38;87.82;99068.94;5077458;28;8824;-59
2023/12/23 02:23:02;;;;;;;;;0.00;0.00;;;;;7.37;87.62;99069.91;5076892;28;8863;-58
2023/12/23 02:25:30;;;;;;;;;1.00;0.00;;;;;7.36;87.50;99054.97;5077082;28;8832;-57
2023/12/23 02:27:57;;;;;;;;;0.00;0.00;;;;;7.35;88.29;99055.94;5077239;28;8820;-57
2023/12/23 02:30:24;;;;;;;;;0.00;0.00;;;;;7.36;87.64;99060.28;5077035;28;8859;-57
2023/12/23 02:32:52;;;;;;;;;0.00;0.00;;;;;7.36;87.65;99052.34;5076766;28;8925;-58
2023/12/23 02:35:20;;;;;;;;;0.00;0.00;;;;;7.35;87.48;99059.41;5077302;28;8820;-58
2023/12/23 02:37:48;;;;;;;;;0.00;0.00;;;;;7.33;87.76;99058.72;5076521;28;8943;-56
2023/12/23 02:40:16;;;;;;;;;0.00;0.00;;;;;7.33;87.86;99045.47;5079344;28;8887;-58
2023/12/23 02:42:44;;;;;;;;;0.00;0.00;;;;;7.33;87.65;99041.97;5096899;28;8830;-57
2023/12/23 02:45:11;;;;;;;;;0.00;0.00;;;;;7.32;87.59;99035.00;5097060;28;8842;-58
2023/12/23 02:47:39;;;;;;;;;0.00;0.00;;;;;7.33;87.78;99031.38;5095402;28;8822;-58
2023/12/23 02:50:07;;;;;;;;;0.00;0.00;;;;;7.32;87.62;99032.34;5096427;28;8838;-57
2023/12/23 02:52:34;;;;;;;;;0.00;0.00;;;;;7.30;87.93;99015.75;5096725;28;8820;-57
2023/12/23 02:55:03;;;;;;;;;0.00;0.00;;;;;7.29;87.38;99022.84;5094516;28;8828;-58
2023/12/23 02:57:31;;;;;;;;;0.00;0.00;;;;;7.28;87.46;99017.69;5116998;28;8828;-58
2023/12/23 02:59:58;;;;;;;;;0.00;0.00;;;;;7.28;87.77;99017.69;5099835;28;8814;-56
2023/12/23 03:02:26;;;;;;;;;0.00;0.00;;;;;7.26;88.21;99003.72;5096668;28;8822;-58
2023/12/23 03:04:54;;;;;;;;;0.00;0.00;;;;;7.25;87.48;99002.03;5096722;28;9514;-58
2023/12/23 03:07:22;;;;;;;;;0.25;0.00;;;;;7.24;87.58;99003.00;5096668;28;8842;-57
2023/12/23 03:09:49;;;;;;;;;1.00;1.00;;;;;7.22;87.94;98991.69;5086866;28;8816;-58
2023/12/23 03:12:17;;;;;;;;;0.50;0.50;;;;;7.18;87.80;99004.34;5112250;28;8824;-56
2023/12/23 03:14:45;;;;;;;;;1.00;1.00;;;;;7.12;87.89;98996.91;5116742;28;8837;-58
2023/12/23 03:17:13;;;;;;;;;0.00;0.00;;;;;7.06;87.92;98980.69;5116707;28;8834;-56
2023/12/23 03:19:41;;;;;;;;;1.00;0.50;;;;;6.98;88.06;98977.81;5116707;28;8820;-58
2023/12/23 03:22:08;;;;;;;;;0.00;0.00;;;;;6.91;88.34;98964.22;5116838;28;9573;-57
2023/12/23 03:24:36;;;;;;;;;0.50;0.00;;;;;6.87;88.38;98961.94;5116348;28;8816;-57
2023/12/23 03:27:04;;;;;;;;;1.00;0.75;;;;;6.84;88.69;98963.03;5092520;28;8822;-58
2023/12/23 03:29:33;;;;;;;;;0.00;0.00;;;;;6.80;88.72;98958.97;5076450;28;9571;-58
2023/12/23 03:32:00;;;;;;;;;2.25;2.25;;;;;6.79;88.62;98956.41;5076376;28;9506;-58
2023/12/23 03:34:28;;;;;;;;;0.75;0.25;;;;;6.78;88.64;98960.03;5075807;28;8850;-58
2023/12/23 03:36:56;;;;;;;;;1.50;1.00;;;;;6.76;88.75;98965.44;5075750;28;8823;-57
2023/12/23 03:39:23;;;;;;;;;1.00;1.00;;;;;6.77;89.09;98940.69;5075929;28;8832;-58
2023/12/23 03:41:51;;;;;;;;;0.00;0.00;;;;;6.78;88.85;98938.88;5075940;28;8858;-57
2023/12/23 03:44:19;;;;;;;;;0.00;0.00;;;;;6.78;88.64;98934.44;5076405;28;9470;-57
2023/12/23 03:46:47;;;;;;;;;1.00;1.00;;;;;6.79;89.03;98932.63;5076448;28;8839;-57
2023/12/23 03:49:15;;;;;;;;;0.25;0.25;;;;;6.79;88.73;98922.03;5096304;28;8822;-58
2023/12/23 03:51:43;;;;;;;;;0.50;0.00;;;;;6.81;88.63;98906.91;5096673;28;8849;-58
2023/12/23 03:54:11;;;;;;;;;0.00;0.00;;;;;6.82;88.84;98904.09;5098857;28;8837;-57
2023/12/23 03:56:39;;;;;;;;;0.00;0.00;;;;;6.85;88.99;98895.09;5101044;28;9542;-58
2023/12/23 03:59:07;;;;;;;;;0.00;0.00;;;;;6.87;88.80;98898.44;5103141;28;9507;-58
2023/12/23 04:01:35;;;;;;;;;1.00;0.50;;;;;6.87;88.64;98886.06;5099512;28;8948;-59
2023/12/23 04:04:03;;;;;;;;;1.00;1.00;;;;;6.91;88.88;98876.88;5099408;28;8826;-56
2023/12/23 04:06:30;;;;;;;;;3.00;3.00;;;;;6.93;88.68;98871.47;5100287;28;8895;-58
2023/12/23 04:08:58;;;;;;;;;0.75;0.75;;;;;6.97;88.72;98872.94;5103478;28;8884;-59
2023/12/23 04:11:26;;;;;;;;;1.00;1.00;;;;;7.00;88.69;98864.72;5110295;28;8840;-58
2023/12/23 04:13:53;;;;;;;;;3.00;3.00;;;;;7.04;88.96;98855.59;5120070;28;8860;-58
2023/12/23 04:16:21;;;;;;;;;2.75;2.50;;;;;7.07;88.40;98845.59;5102334;28;8910;-56
2023/12/23 04:18:49;;;;;;;;;1.50;1.50;;;;;7.12;88.33;98843.38;5081591;28;8855;-58
2023/12/23 04:21:17;;;;;;;;;2.00;2.00;;;;;7.18;88.88;98831.44;5079585;28;8901;-57
2023/12/23 04:23:44;;;;;;;;;3.00;2.00;;;;;7.24;89.05;98836.22;5079302;28;8848;-56
2023/12/23 04:26:14;;;;;;;;;1.00;1.00;;;;;7.32;88.77;98844.34;5079216;28;8844;-58
2023/12/23 04:28:41;;;;;;;;;0.25;0.00;;;;;7.41;88.63;98822.38;5117141;28;8815;-56
2023/12/23 04:31:10;;;;;;;;;0.50;0.50;;;;;7.48;88.74;98818.25;5120567;28;8939;-58
2023/12/23 04:33:39;;;;;;;;;1.50;1.50;;;;;7.56;88.26;98816.63;5119024;28;8816;-56
2023/12/23 04:36:07;;;;;;;;;0.75;0.00;;;;;7.65;88.68;98817.66;5079207;28;8836;-57
2023/12/23 04:38:35;;;;;;;;;0.75;0.00;;;;;7.73;88.37;98808.94;5079401;28;8847;-57
2023/12/23 04:41:03;;;;;;;;;2.00;1.00;;;;;7.80;88.55;98788.03;5079013;28;8844;-56
2023/12/23 04:43:32;;;;;;;;;3.50;2.50;;;;;7.86;88.59;98795.44;5078946;28;8905;-56
2023/12/23 04:46:00;;;;;;;;;0.50;0.00;;;;;7.92;88.50;98793.09;5078972;28;8941;-56
2023/12/23 04:48:27;;;;;;;;;0.25;0.25;;;;;7.97;88.56;98782.94;5078907;28;8947;-58
2023/12/23 04:50:55;;;;;;;;;3.50;3.50;;;;;8.02;88.30;98782.53;5079452;28;8962;-56
2023/12/23 04:53:23;;;;;;;;;3.00;2.00;;;;;8.05;88.29;98775.16;5078893;28;8948;-56
2023/12/23 04:55:52;;;;;;;;;1.00;1.00;;;;;8.10;88.46;98785.34;5078490;28;8836;-56
2023/12/23 04:58:20;;;;;;;;;3.00;2.00;;;;;8.14;88.63;98784.13;5078689;28;8894;-58
2023/12/23 05:00:48;;;;;;;;;3.00;2.50;;;;;8.18;88.18;98789.00;5078615;28;8820;-58
2023/12/23 05:03:16;;;;;;;;;0.00;0.00;;;;;8.20;88.73;98792.38;5079854;28;8866;-58
2023/12/23 05:05:44;;;;;;;;;1.00;1.00;;;;;8.22;88.43;98779.81;5098508;28;8838;-58
2023/12/23 05:08:10;;;;;;;;;1.00;1.00;;;;;8.25;89.03;98779.56;5097690;28;8864;-57
2023/12/23 05:10:39;;;;;;;;;1.00;1.00;;;;;8.28;88.84;98779.28;5098808;28;8812;-57
2023/12/23 05:13:07;;;;;;;;;4.00;4.00;;;;;8.29;88.69;98765.06;5098221;28;8925;-56
2023/12/23 05:15:35;;;;;;;;;2.50;2.50;;;;;8.30;88.83;98781.81;5099321;28;8825;-58
2023/12/23 05:18:02;;;;;;;;;2.00;2.00;;;;;8.32;88.68;98767.44;5102024;28;8820;-57
2023/12/23 05:20:30;;;;;;;;;0.25;0.25;;;;;8.34;88.86;98767.28;5117303;28;8820;-57
2023/12/23 05:22:58;;;;;;;;;0.00;0.00;;;;;8.35;88.67;98759.22;5113119;28;8810;-56
2023/12/23 05:25:25;;;;;;;;;4.50;3.25;;;;;8.35;88.91;98780.44;5092004;28;8832;-58
2023/12/23 05:27:53;;;;;;;;;3.75;3.00;;;;;8.37;89.10;98765.22;5078119;28;8855;-56
2023/12/23 05:30:21;;;;;;;;;2.50;2.50;;;;;8.38;88.89;98758.09;5077953;28;8828;-56
2023/12/23 05:32:49;;;;;;;;;3.50;3.50;;;;;8.39;88.95;98759.78;5077881;28;8836;-57
2023/12/23 05:35:17;;;;;;;;;1.00;1.00;;;;;8.40;89.03;98751.69;5091414;28;8811;-58
2023/12/23 05:37:45;;;;;;;;;3.00;3.00;;;;;8.39;89.19;98778.34;5118509;28;8945;-55
2023/12/23 05:40:13;;;;;;;;;0.00;0.00;;;;;8.39;89.17;98746.50;5119112;28;8913;-57
2023/12/23 05:42:40;;;;;;;;;4.00;4.00;;;;;8.39;89.69;98760.63;5100878;28;8866;-58
2023/12/23 05:45:08;;;;;;;;;3.75;1.50;;;;;8.39;89.11;98744.72;5077778;28;8830;-56
2023/12/23 05:47:36;;;;;;;;;3.00;3.00;;;;;8.40;89.36;98753.47;5077551;28;8824;-56
2023/12/23 05:50:04;;;;;;;;;2.50;2.50;;;;;8.38;89.65;98743.00;5077806;28;8851;-58
2023/12/23 05:52:32;;;;;;;;;1.50;1.00;;;;;8.37;88.97;98751.94;5077718;28;8848;-57
2023/12/23 05:54:59;;;;;;;;;3.25;3.00;;;;;8.38;89.87;98742.19;5077386;28;8866;-58
2023/12/23 05:57:27;;;;;;;;;1.50;1.00;;;;;8.38;89.77;98739.53;5077719;28;8820;-56
2023/12/23 05:59:56;;;;;;;;;5.25;3.75;;;;;8.37;89.87;98756.44;5078122;28;8808;-56
2023/12/23 06:02:23;;;;;;;;;4.00;3.50;;;;;8.36;89.66;98750.28;5077421;28;8838;-58
2023/12/23 06:04:52;;;;;;;;;4.50;4.00;;;;;8.35;89.74;98753.91;5077277;28;8859;-56
2023/12/23 06:07:19;;;;;;;;;5.00;4.00;;;;;8.36;89.71;98749.44;5077022;28;8832;-56
2023/12/23 06:09:47;;;;;;;;;6.00;6.00;;;;;8.35;89.67;98753.09;5077073;28;8824;-56
2023/12/23 06:12:15;;;;;;;;;4.00;4.00;;;;;8.35;89.97;98758.38;5087293;28;8838;-56
2023/12/23 06:14:42;;;;;;;;;3.75;2.50;;;;;8.34;90.21;98759.34;5097187;28;8848;-56
2023/12/23 06:17:10;;;;;;;;;3.25;3.25;;;;;8.34;89.84;98754.03;5096208;28;8826;-56
2023/12/23 06:19:38;;;;;;;;;4.75;4.50;;;;;8.34;90.02;98756.69;5094411;28;8840;-55
2023/12/23 06:22:06;;;;;;;;;0.00;0.00;;;;;8.33;90.08;98765.63;5096471;28;8830;-56
2023/12/23 06:24:34;;;;;;;;;3.25;3.25;;;;;8.32;89.89;98748.03;5095850;28;8853;-55
2023/12/23 06:27:01;;;;;;;;;4.50;4.00;;;;;8.32;90.00;98751.53;5096434;28;8821;-56
2023/12/23 06:29:30;;;;;;;;;2.50;2.50;;;;;8.32;89.76;98754.19;5095403;28;8828;-55
2023/12/23 06:31:59;;;;;;;;;8.50;6.75;;;;;8.33;90.23;98733.78;5095635;28;8830;-55
2023/12/23 06:34:27;;;;;;;;;4.75;4.00;;;;;8.32;89.85;98751.53;5095157;28;8838;-53
2023/12/23 06:36:56;;;;;;;;;5.50;3.75;;;;;8.33;90.30;98744.41;5096319;28;8846;-56
2023/12/23 06:39:24;;;;;;;;;6.00;4.50;;;;;8.33;90.51;98739.94;5100257;28;8942;-55
2023/12/23 06:41:51;;;;;;;;;6.25;4.50;;;;;8.33;90.27;98734.66;5107981;28;8840;-55
2023/12/23 06:44:19;;;;;;;;;5.00;4.00;;;;;8.34;90.29;98730.16;5116884;28;8847;-55
2023/12/23 06:46:47;;;;;;;;;4.75;3.50;;;;;8.33;90.28;98729.34;5097803;28;8830;-55
2023/12/23 06:49:15;;;;;;;;;1.50;1.50;;;;;8.34;90.09;98728.34;5096482;28;8846;-56
2023/12/23 06:51:43;;;;;;;;;6.00;4.50;;;;;8.35;90.35;98730.03;5078805;28;9623;-54
2023/12/23 06:54:11;;;;;;;;;9.00;7.00;;;;;8.35;90.00;98730.03;5075576;28;8839;-55
2023/12/23 06:56:38;;;;;;;;;5.50;5.00;;;;;8.35;90.54;98726.56;5075841;28;8824;-55
2023/12/23 06:59:09;;;;;;;;;3.00;3.00;;;;;8.36;90.41;98734.34;5115446;28;8850;-55
2023/12/23 07:01:38;;;;;;;;;3.50;3.50;;;;;8.36;90.62;98729.06;5116594;28;8828;-54
2023/12/23 07:04:06;;;;;;;;;3.75;3.75;;;;;8.36;90.53;98734.34;5116321;28;8875;-55
2023/12/23 07:06:35;;;;;;;;;5.50;5.50;;;;;8.37;90.50;98741.34;5116744;28;8816;-54
2023/12/23 07:09:02;;;;;;;;;3.25;3.00;;;;;8.38;90.18;98735.06;5076480;28;8897;-55
2023/12/23 07:11:34;;;;;;;;;7.00;6.50;;;;;8.38;90.78;98726.28;5076123;28;8983;-56
2023/12/23 07:14:01;;;;;;;;;8.50;6.50;;;;;8.37;90.38;98712.16;5075772;28;8828;-54
2023/12/23 07:16:30;;;;;;;;;3.25;3.25;;;;;8.37;90.30;98720.13;5076040;28;8854;-55
2023/12/23 07:18:58;;;;;;;;;5.50;5.00;;;;;8.36;90.51;98721.09;5076050;28;8971;-54
2023/12/23 07:21:26;;;;;;;;;7.50;4.50;;;;;8.38;90.42;98731.56;5075987;28;8905;-55
2023/12/23 07:23:54;;;;;;;;;1.00;1.00;;;;;8.36;90.91;98731.69;5076321;28;8816;-56
2023/12/23 07:26:22;;;;;;;;;6.25;4.00;;;;;8.38;90.59;98740.34;5074948;28;8824;-54
2023/12/23 07:28:50;;;;;;;;;4.00;4.00;;;;;8.38;90.13;98728.94;5074863;28;8867;-55
2023/12/23 07:31:17;;;;;;;;;4.50;3.75;;;;;8.39;90.68;98728.78;5075349;28;8840;-55
2023/12/23 07:33:46;;;;;;;;;5.00;5.00;;;;;8.41;90.59;98733.94;5079599;28;8818;-56
2023/12/23 07:36:14;;;;;;;;;4.00;3.25;;;;;8.40;90.49;98725.16;5095412;28;8911;-55
2023/12/23 07:38:42;;;;;;;;;5.50;5.50;;;;;8.41;90.56;98734.78;5095435;28;8873;-55
2023/12/23 07:41:11;;;;;;;;;4.00;4.00;;;;;8.42;90.73;98733.81;5094383;28;9542;-53
2023/12/23 07:43:39;;;;;;;;;3.50;3.25;;;;;8.42;90.89;98728.50;5095154;28;8897;-54
2023/12/23 07:46:07;;;;;;;;;5.00;5.00;;;;;8.43;90.50;98726.72;5094554;28;8850;-55
2023/12/23 07:48:35;;;;;;;;;2.00;2.00;;;;;8.42;90.79;98728.50;5095048;28;8840;-54
2023/12/23 07:51:02;;;;;;;;;4.75;3.00;;;;;8.43;90.68;98746.09;5095806;28;8834;-55
2023/12/23 07:53:30;;;;;;;;;5.00;5.00;;;;;8.45;90.67;98727.41;5094332;28;8844;-55
2023/12/23 07:55:58;;;;;;;;;4.00;3.25;;;;;8.46;90.58;98743.19;5095553;28;8857;-54
2023/12/23 07:58:26;;;;;;;;;4.25;3.25;;;;;8.46;90.76;98737.88;5095234;28;9491;-54
2023/12/23 08:00:53;;;;;;;;;0.50;0.25;;;;;8.46;90.98;98729.91;5098582;28;8834;-55
2023/12/23 08:03:21;;;;;;;;;5.00;3.25;;;;;8.47;90.56;98736.91;5098106;28;8810;-55
2023/12/23 08:05:49;;;;;;;;;7.00;6.00;;;;;8.48;90.66;98737.72;5112121;28;8796;-56
2023/12/23 08:08:18;;;;;;;;;3.00;3.00;;;;;8.49;90.73;98752.66;5111330;28;8810;-55
2023/12/23 08:10:45;;;;;;;;;3.50;3.00;;;;;8.49;90.66;98745.53;5094398;28;8822;-54
2023/12/23 08:13:13;;;;;;;;;5.00;1.00;;;;;8.48;91.08;98722.66;5082720;28;8840;-55
2023/12/23 08:15:41;;;;;;;;;4.00;3.75;;;;;8.49;90.72;98740.25;5082515;28;8826;-54
2023/12/23 08:18:09;;;;;;;;;3.00;3.00;;;;;8.52;90.79;98749.75;5094810;28;8853;-54
2023/12/23 08:20:37;;;;;;;;;3.25;3.25;;;;;8.52;90.88;98737.28;5100339;28;8924;-54
2023/12/23 08:23:05;;;;;;;;;2.00;2.00;;;;;8.53;90.68;98746.09;5115069;28;8820;-54
2023/12/23 08:25:32;;;;;;;;;5.00;5.00;;;;;8.55;91.06;98754.75;5115229;28;8866;-54
2023/12/23 08:28:00;;;;;;;;;2.50;1.00;;;;;8.55;90.55;98752.97;5115575;28;8820;-55
2023/12/23 08:30:28;;;;;;;;;3.25;3.25;;;;;8.57;90.73;98752.78;5115993;28;8896;-55
2023/12/23 08:32:56;;;;;;;;;3.00;3.00;;;;;8.57;90.80;98758.97;5093757;28;8959;-55
2023/12/23 08:35:24;;;;;;;;;1.00;1.00;;;;;8.58;90.86;98763.28;5074768;28;8902;-56
2023/12/23 08:37:52;;;;;;;;;4.25;3.50;;;;;8.58;90.60;98763.28;5075338;28;8825;-55
2023/12/23 08:40:20;;;;;;;;;3.25;3.00;;;;;8.59;90.87;98762.31;5078621;28;8828;-55
2023/12/23 08:42:48;;;;;;;;;3.00;3.00;;;;;8.61;90.70;98764.81;5078948;28;8836;-54
2023/12/23 08:45:17;;;;;;;;;3.00;3.00;;;;;8.61;90.99;98770.97;5078088;28;8832;-54
2023/12/23 08:47:44;;;;;;;;;3.00;1.00;;;;;8.62;90.92;98772.66;5077576;28;8836;-55
2023/12/23 08:50:13;;;;;;;;;3.50;3.00;;;;;8.64;90.99;98772.50;5078815;28;8840;-54
2023/12/23 08:52:41;;;;;;;;;3.50;2.50;;;;;8.64;90.91;98770.69;5077956;28;8823;-54
2023/12/23 08:55:09;;;;;;;;;3.00;3.00;;;;;8.65;90.92;98772.38;5077228;28;8855;-54
2023/12/23 08:57:36;;;;;;;;;3.50;3.50;;;;;8.65;90.93;98777.66;5086090;28;8911;-53
2023/12/23 09:00:05;;;;;;;;;2.50;2.50;;;;;8.67;91.04;98778.38;5097934;28;8845;-54
2023/12/23 09:02:32;;;;;;;;;4.00;4.00;;;;;8.68;91.34;98777.38;5097805;28;8841;-55
2023/12/23 09:05:00;;;;;;;;;3.00;3.00;;;;;8.68;90.94;98780.03;5097228;28;8822;-55
2023/12/23 09:07:28;;;;;;;;;4.00;3.25;;;;;8.70;90.82;98774.59;5097352;28;9565;-54
2023/12/23 09:09:59;;;;;;;;;3.50;3.50;;;;;8.70;91.05;98778.09;5102015;28;8965;-54
2023/12/23 09:12:27;;;;;;;;;3.00;1.00;;;;;8.70;91.11;98779.91;5114754;28;8844;-54
2023/12/23 09:14:54;;;;;;;;;3.75;3.75;;;;;8.68;90.78;98782.69;5114869;28;8842;-55
2023/12/23 09:17:23;;;;;;;;;7.00;4.50;;;;;8.72;91.17;98793.88;5097676;28;8956;-55
2023/12/23 09:19:51;;;;;;;;;3.75;3.75;;;;;8.72;90.86;98789.41;5098248;28;8840;-56
2023/12/23 09:22:18;;;;;;;;;5.25;3.75;;;;;8.72;90.88;98794.72;5098124;28;8822;-55
2023/12/23 09:24:46;;;;;;;;;3.00;3.00;;;;;8.72;91.35;98789.41;5080158;28;8820;-55
2023/12/23 09:27:14;;;;;;;;;3.25;3.00;;;;;8.73;90.85;98814.16;5084870;28;8857;-55
2023/12/23 09:29:42;;;;;;;;;3.00;3.00;;;;;8.74;90.73;98799.91;5117126;28;8859;-56
2023/12/23 09:32:10;;;;;;;;;4.00;4.00;;;;;8.73;90.95;98799.03;5117746;28;8839;-56
2023/12/23 09:34:38;;;;;;;;;4.50;4.50;;;;;8.75;91.39;98802.41;5117379;28;8840;-56
2023/12/23 09:37:06;;;;;;;;;3.25;3.25;;;;;8.75;91.60;98807.69;5117603;28;8847;-56
2023/12/23 09:39:33;;;;;;;;;4.50;4.00;;;;;8.76;90.98;98801.44;5117284;28;8978;-54
2023/12/23 09:42:01;;;;;;;;;3.75;3.75;;;;;8.77;91.20;98818.19;5077705;28;8848;-56
2023/12/23 09:44:29;;;;;;;;;5.75;4.00;;;;;8.78;91.02;98803.94;5077273;28;8816;-56
2023/12/23 09:46:57;;;;;;;;;3.75;3.00;;;;;8.78;91.22;98809.25;5077183;28;8828;-56
2023/12/23 09:49:25;;;;;;;;;1.50;1.00;;;;;8.78;91.08;98804.78;5076624;28;8913;-55
2023/12/23 09:51:53;;;;;;;;;3.00;3.00;;;;;8.78;91.56;98804.78;5077391;28;8824;-55
2023/12/23 09:54:20;;;;;;;;;3.75;3.75;;;;;8.79;91.71;98821.53;5077334;28;8955;-55
2023/12/23 09:56:49;;;;;;;;;6.25;4.25;;;;;8.80;91.74;98813.44;5077540;28;8895;-56
2023/12/23 09:59:16;;;;;;;;;3.00;1.00;;;;;8.79;91.60;98810.91;5077631;28;8823;-56
2023/12/23 10:01:44;;;;;;;;;0.00;0.00;;;;;8.79;91.18;98814.41;5077116;28;8843;-56
2023/12/23 10:04:12;;;;;;;;;1.50;1.00;;;;;8.80;91.33;98812.63;5084838;28;9467;-54
2023/12/23 10:06:40;;;;;;;;;1.00;1.00;;;;;8.80;90.97;98809.97;5096468;28;8834;-56
2023/12/23 10:09:08;;;;;;;;;3.25;3.25;;;;;8.80;91.39;98821.41;5096507;28;8845;-56
2023/12/23 10:11:36;;;;;;;;;2.00;2.00;;;;;8.81;91.74;98824.91;5094694;28;8830;-55
2023/12/23 10:14:04;;;;;;;;;3.00;3.00;;;;;8.81;91.78;98831.03;5093027;28;8826;-56
2023/12/23 10:16:31;;;;;;;;;5.50;5.50;;;;;8.81;91.40;98822.25;5095326;28;8830;-56
2023/12/23 10:19:01;;;;;;;;;5.50;3.75;;;;;8.80;91.30;98818.75;5095831;28;8818;-56
2023/12/23 10:21:29;;;;;;;;;1.00;0.00;;;;;8.81;91.39;98817.78;5096550;28;8834;-54
2023/12/23 10:23:57;;;;;;;;;3.00;3.00;;;;;8.81;91.42;98808.97;5095128;28;8871;-56
2023/12/23 10:26:25;;;;;;;;;2.00;2.00;;;;;8.81;91.64;98828.38;5095947;28;8842;-55
2023/12/23 10:28:53;;;;;;;;;3.00;3.00;;;;;8.81;91.61;98814.28;5095678;28;8944;-56
2023/12/23 10:31:21;;;;;;;;;3.00;1.00;;;;;8.81;91.44;98824.91;5096178;28;8833;-55
2023/12/23 10:33:49;;;;;;;;;2.50;2.50;;;;;8.82;91.90;98816.78;5095802;28;8908;-56
2023/12/23 10:36:17;;;;;;;;;2.00;1.00;;;;;8.82;91.54;98811.47;5096444;28;8806;-56
2023/12/23 10:38:44;;;;;;;;;1.00;0.50;;;;;8.82;91.14;98821.28;5095335;28;8814;-56
2023/12/23 10:41:12;;;;;;;;;0.00;0.00;;;;;8.81;91.28;98812.47;5101769;28;9041;-56
2023/12/23 10:43:40;;;;;;;;;2.00;2.00;;;;;8.82;91.41;98808.81;5115866;28;8862;-57
2023/12/23 10:46:08;;;;;;;;;3.50;3.50;;;;;8.83;91.55;98822.94;5105732;28;8825;-57
2023/12/23 10:48:36;;;;;;;;;0.50;0.50;;;;;8.82;91.70;98822.09;5088293;28;8816;-56
2023/12/23 10:51:04;;;;;;;;;1.00;0.00;;;;;8.83;91.82;98820.28;5075233;28;8828;-56
2023/12/23 10:53:32;;;;;;;;;1.00;1.00;;;;;8.83;91.26;98812.34;5075531;28;8947;-56
2023/12/23 10:56:00;;;;;;;;;1.50;1.00;;;;;8.83;91.38;98823.78;5075905;28;8878;-56
2023/12/23 10:58:28;;;;;;;;;1.00;1.00;;;;;8.82;91.35;98827.41;5099018;28;8835;-54
2023/12/23 11:00:56;;;;;;;;;0.75;0.75;;;;;8.82;91.32;98815.97;5115608;28;8871;-57
2023/12/23 11:03:24;;;;;;;;;3.00;1.00;;;;;8.83;91.57;98828.25;5115316;28;8881;-56
2023/12/23 11:05:54;;;;;;;;;0.25;0.25;;;;;8.83;91.78;98825.59;5093333;28;8831;-55
2023/12/23 11:08:22;;;;;;;;;1.75;0.75;;;;;8.83;91.58;98834.38;5075032;28;8842;-56
2023/12/23 11:10:49;;;;;;;;;0.00;0.00;;;;;8.84;91.50;98832.59;5074788;28;8828;-55
2023/12/23 11:13:17;;;;;;;;;1.00;1.00;;;;;8.82;91.74;98822.09;5074405;28;8827;-54
2023/12/23 11:15:45;;;;;;;;;3.00;2.75;;;;;8.84;91.35;98835.25;5074354;28;8820;-56
2023/12/23 11:18:13;;;;;;;;;0.25;0.25;;;;;8.84;91.93;98836.09;5074275;28;9556;-57
2023/12/23 11:20:41;;;;;;;;;3.50;3.00;;;;;8.84;91.43;98835.25;5073950;28;8820;-54
2023/12/23 11:23:10;;;;;;;;;2.50;2.50;;;;;8.85;91.89;98824.50;5074289;28;8840;-56
2023/12/23 11:25:38;;;;;;;;;0.50;0.50;;;;;8.85;91.60;98816.53;5073162;28;8839;-55
2023/12/23 11:28:06;;;;;;;;;0.25;0.00;;;;;8.86;91.63;98817.34;5074362;28;9602;-57
2023/12/23 11:30:34;;;;;;;;;1.00;1.00;;;;;8.86;91.93;98835.94;5074592;28;8920;-56
2023/12/23 11:33:02;;;;;;;;;1.00;0.00;;;;;8.86;91.34;98830.63;5074581;28;8831;-56
2023/12/23 11:35:30;;;;;;;;;0.00;0.00;;;;;8.87;91.45;98840.25;5090583;28;8826;-57
2023/12/23 11:38:00;;;;;;;;;1.00;1.00;;;;;8.88;91.41;98850.75;5095362;28;8821;-56
2023/12/23 11:40:30;;;;;;;;;1.00;1.00;;;;;8.89;91.94;98833.03;5093392;28;8848;-55
2023/12/23 11:42:58;;;;;;;;;1.00;1.00;;;;;8.90;91.60;98850.63;5096486;28;9495;-57
2023/12/23 11:45:26;;;;;;;;;0.50;0.50;;;;;8.89;91.80;98836.50;5094878;28;8822;-56
2023/12/23 11:47:54;;;;;;;;;3.00;3.00;;;;;8.89;91.78;98857.72;5094657;28;8842;-57
2023/12/23 11:50:26;;;;;;;;;0.75;0.50;;;;;8.90;91.49;98845.31;5093830;28;8852;-56
2023/12/23 11:52:54;;;;;;;;;0.50;0.50;;;;;8.90;91.83;98856.75;5093911;28;8810;-54
2023/12/23 11:55:23;;;;;;;;;1.50;1.00;;;;;8.92;91.99;98862.78;5094741;28;9594;-56